Hixson, TN (37343)

11:11 AM EST on February 09, 2016 (GMT -0500)
Signature Oaks | | Change Station
CLOSE
Current Station
Personal Weather Station
Location: Hixson, TN
Elevation: 679 ft
Nearby Weather Stations
Active Advisory: Winter Weather Advisory Active Notice: Local Storm Report

Elev 679 ft 35.18 °N, 85.18 °W | Updated 2 minutes ago

Overcast
Overcast
30.7 °F
Feels Like 27 °F
N
4.0
Wind Variable Wind from South
Gusts 6.0 mph

Today
High -- | Low -- °F
--% Chance of Precip.
Yesterday
High -- | Low -- °F
Precip. -- in
Pressure 29.89 in
Visibility 2.5 miles
Clouds Few 1200 ft
Mostly Cloudy 2500 ft
Overcast 3000 ft
Windchill 27 °F
Dew Point 25 °F
Humidity 80%
Rainfall 0.00 in
Snow Depth Not available.
7:33 AM 6:17 PM
New Moon, 2% visible
METAR KCHA 091553Z 16003KT 2 1/2SM -SN BR FEW012 BKN025 OVC030 M02/M04 A2988 RMK AO2 SLP122 P0000 T10171044
Pressure 29.89 in
Visibility 2.5 miles
Clouds Few 1200 ft
Mostly Cloudy 2500 ft
Overcast 3000 ft
Windchill 27 °F
Dew Point 25 °F
Humidity 80%
Rainfall 0.00 in
Snow Depth Not available.
7:33 AM 6:17 PM
New Moon, 2% visible
METAR KCHA 091553Z 16003KT 2 1/2SM -SN BR FEW012 BKN025 OVC030 M02/M04 A2988 RMK AO2 SLP122 P0000 T10171044

10-Day Weather Forecast

Almanac

Astronomy

Feb. 09, 2016 Rise Set
Actual Time
Civil Twilight
Nautical Twilight
Astronomical Twilight
Moon
Length of Visible Light
Length of Day
Tomorrow will be .
, % of the Moon is Illuminated

Today's Extremes

State Highs State Lows

Community

WunderPhotos

Upload Photos

1,891,629 photos uploaded!

WunderBlog® & News

Nearby

Air Quality

  Air Quality AQ Index Pollutant
Not available.

Snow Depth

Station Depth Elevation

Earthquake Activity

City Distance Mag. Time & Date
Minimum magnitude displayed is 2.5.

Coastal Water Temperatures

Place Temperature

Stations

Nearby Weather Stations

Station Location Temp. Windchill Dew Point Humidity Wind Precip. Elev Updated Type
                   

Watches & Warnings

Winter Weather Advisory
Issued: 10:18 AM EST Feb. 9, 2016 – National Weather Service

... Winter Weather Advisory now in effect until 7 am EST
Wednesday...

* event... a series of upper-level disturbances will sweep across
the area today... bringing a few periods of snow showers to the
southern valley. During the event snow totals will be mainly
around 1 inch in the valley... but a few locally higher amounts
expected along the higher terrain... but 2 to 3 inches in the
higher elevations.

* Timing... today through tonight.

* Impacts... the snow could cause hazardous driving conditions...
especially on secondary roads.

Precautionary/preparedness actions...

A Winter Weather Advisory for snow means that periods of snow are
expected or occurring... but accumulations are expected to be
light. Driving and walking may be difficult on untreated
roadways and sidewalks. Be prepared for snow covered roads and
limited visibilities. If you must travel... slow down and allow
extra time to reach your destination.